createdAt,value
2018-02-06T00:00:12.902Z,17.60
2018-02-06T00:01:12.868Z,16.70
2018-02-06T00:02:12.847Z,17.20
2018-02-06T00:03:12.817Z,17.00
2018-02-06T00:04:12.796Z,18.10
2018-02-06T00:05:12.773Z,17.40
2018-02-06T00:06:12.745Z,16.50
2018-02-06T00:07:12.721Z,17.40
2018-02-06T00:08:12.696Z,17.70
2018-02-06T00:09:12.674Z,17.50
2018-02-06T00:10:12.652Z,17.40
2018-02-06T00:11:12.624Z,17.40
2018-02-06T00:12:12.604Z,18.00
2018-02-06T00:13:12.585Z,17.60
2018-02-06T00:14:12.556Z,17.40
2018-02-06T00:15:12.527Z,17.60
2018-02-06T00:16:12.507Z,16.90
2018-02-06T00:17:12.477Z,16.20
2018-02-06T00:18:12.453Z,16.10
2018-02-06T00:19:12.439Z,16.90
2018-02-06T00:20:12.407Z,18.10
2018-02-06T00:21:12.384Z,17.70
2018-02-06T00:22:12.356Z,17.00
2018-02-06T00:23:12.331Z,16.00
2018-02-06T00:24:12.309Z,17.50
2018-02-06T00:25:12.284Z,15.70
2018-02-06T00:26:12.258Z,15.80
2018-02-06T00:27:12.237Z,17.10
2018-02-06T00:28:12.216Z,16.70
2018-02-06T00:29:12.186Z,16.20
2018-02-06T00:30:12.161Z,16.70
2018-02-06T00:31:12.145Z,16.50
2018-02-06T00:32:12.116Z,15.70
2018-02-06T00:33:12.087Z,16.30
2018-02-06T00:34:12.068Z,17.40
2018-02-06T00:35:12.038Z,16.40
2018-02-06T00:36:12.015Z,15.40
2018-02-06T00:37:11.990Z,16.90
2018-02-06T00:38:11.967Z,16.10
2018-02-06T00:39:11.943Z,16.50
2018-02-06T00:40:11.916Z,16.50
2018-02-06T00:41:11.895Z,16.00
2018-02-06T00:42:11.867Z,17.30
2018-02-06T00:43:11.841Z,16.80
2018-02-06T00:44:11.817Z,16.80
2018-02-06T00:45:11.792Z,15.20
2018-02-06T00:46:11.770Z,16.30
2018-02-06T00:47:11.744Z,16.30
2018-02-06T00:48:11.720Z,15.90
2018-02-06T00:49:11.705Z,15.90
2018-02-06T00:50:11.672Z,15.90
2018-02-06T00:51:11.647Z,15.40
2018-02-06T00:52:11.622Z,16.30
2018-02-06T00:53:11.600Z,16.50
2018-02-06T00:54:11.572Z,15.70
2018-02-06T00:55:11.550Z,16.00
2018-02-06T00:56:11.521Z,15.80
2018-02-06T00:57:11.497Z,15.20
2018-02-06T00:58:11.473Z,17.90
2018-02-06T00:59:11.451Z,15.90
2018-02-06T01:00:11.429Z,17.10
2018-02-06T01:01:11.398Z,15.70
2018-02-06T01:02:11.376Z,16.70
2018-02-06T01:03:11.354Z,15.60
2018-02-06T01:04:11.328Z,17.10
2018-02-06T01:05:11.310Z,16.80
2018-02-06T01:06:11.284Z,16.50
2018-02-06T01:07:11.251Z,15.80
2018-02-06T01:08:11.234Z,15.60
2018-02-06T01:09:11.206Z,16.70
2018-02-06T01:10:11.180Z,15.50
2018-02-06T01:11:11.158Z,16.00
2018-02-06T01:12:11.132Z,16.40
2018-02-06T01:13:11.106Z,17.20
2018-02-06T01:14:11.085Z,15.40
2018-02-06T01:15:11.066Z,16.00
2018-02-06T01:16:11.029Z,16.60
2018-02-06T01:17:11.011Z,17.50
2018-02-06T01:18:10.979Z,16.00
2018-02-06T01:19:10.957Z,15.30
2018-02-06T01:20:10.931Z,17.10
2018-02-06T01:21:10.908Z,16.60
2018-02-06T01:22:10.885Z,17.30
2018-02-06T01:23:10.864Z,16.30
2018-02-06T01:24:10.839Z,16.60
2018-02-06T01:25:10.812Z,16.70
2018-02-06T01:26:10.788Z,16.50
2018-02-06T01:27:10.765Z,17.70
2018-02-06T01:28:10.736Z,17.10
2018-02-06T01:29:10.714Z,17.00
2018-02-06T01:30:10.688Z,17.20
2018-02-06T01:31:10.728Z,16.80
2018-02-06T01:32:10.648Z,16.90
2018-02-06T01:33:10.615Z,16.40
2018-02-06T01:34:10.590Z,16.90
2018-02-06T01:35:10.573Z,17.00
2018-02-06T01:36:10.544Z,17.10
2018-02-06T01:37:10.517Z,17.30
2018-02-06T01:38:10.489Z,17.50
2018-02-06T01:39:10.465Z,17.10
2018-02-06T01:40:10.446Z,17.60
2018-02-06T01:41:10.423Z,16.50
2018-02-06T01:42:10.397Z,17.30
2018-02-06T01:43:10.372Z,17.20
2018-02-06T01:44:10.345Z,17.50
2018-02-06T01:45:10.321Z,17.70
2018-02-06T01:46:10.294Z,18.20
2018-02-06T01:47:10.278Z,17.50
2018-02-06T01:48:10.249Z,18.40
2018-02-06T01:49:10.227Z,16.90
2018-02-06T01:50:10.194Z,18.10
2018-02-06T01:51:10.177Z,17.70
2018-02-06T01:52:10.146Z,17.80
2018-02-06T01:53:10.123Z,17.60
2018-02-06T01:54:10.096Z,17.20
2018-02-06T01:55:10.074Z,17.20
2018-02-06T01:56:10.046Z,17.30
2018-02-06T01:57:10.022Z,17.80
2018-02-06T01:58:10.002Z,18.70
2018-02-06T01:59:09.976Z,18.20
2018-02-06T02:00:09.958Z,17.00
2018-02-06T02:01:09.924Z,18.30
2018-02-06T02:02:09.900Z,18.10
2018-02-06T02:03:09.879Z,17.60
2018-02-06T02:04:09.855Z,18.20
2018-02-06T02:05:09.831Z,19.00
2018-02-06T02:06:09.802Z,17.60
2018-02-06T02:07:09.775Z,18.20
2018-02-06T02:08:09.757Z,17.30
2018-02-06T02:09:09.728Z,18.20
2018-02-06T02:10:09.708Z,18.80
2018-02-06T02:11:09.676Z,18.10
2018-02-06T02:12:09.653Z,17.60
2018-02-06T02:13:09.629Z,17.10
2018-02-06T02:14:09.608Z,17.50
2018-02-06T02:15:09.582Z,17.60
2018-02-06T02:16:09.562Z,17.90
2018-02-06T02:17:09.534Z,17.20
2018-02-06T02:18:09.506Z,17.90
2018-02-06T02:19:09.486Z,17.40
2018-02-06T02:20:09.458Z,18.90
2018-02-06T02:21:09.430Z,18.00
2018-02-06T02:22:09.406Z,19.20
2018-02-06T02:23:09.384Z,19.00
2018-02-06T02:24:09.356Z,16.90
2018-02-06T02:25:09.335Z,18.50
2018-02-06T02:26:09.313Z,19.20
2018-02-06T02:27:09.286Z,18.30
2018-02-06T02:28:09.265Z,18.40
2018-02-06T02:29:09.236Z,19.00
2018-02-06T02:30:09.207Z,19.20
2018-02-06T02:31:09.186Z,19.80
2018-02-06T02:32:09.159Z,18.20
2018-02-06T02:33:09.136Z,19.00
2018-02-06T02:34:09.117Z,19.50
2018-02-06T02:35:09.086Z,18.80
2018-02-06T02:36:09.085Z,17.50
2018-02-06T02:37:09.035Z,19.80
2018-02-06T02:38:09.018Z,19.70
2018-02-06T02:39:08.994Z,19.10
2018-02-06T02:40:08.961Z,18.60
2018-02-06T02:41:08.938Z,19.00
2018-02-06T04:39:06.000Z,20.30
2018-02-06T04:40:05.977Z,21.90
2018-02-06T04:41:05.947Z,20.40
2018-02-06T04:42:05.924Z,20.10
2018-02-06T04:43:05.900Z,20.20
2018-02-06T04:44:05.876Z,21.60
2018-02-06T04:45:05.853Z,20.50
2018-02-06T04:46:05.821Z,20.40
2018-02-06T04:47:05.804Z,20.80
2018-02-06T04:48:05.818Z,21.20
2018-02-06T04:49:05.744Z,20.20
2018-02-06T04:50:05.724Z,20.40
2018-02-06T04:51:05.698Z,20.40
2018-02-06T04:52:05.669Z,20.50
2018-02-06T04:53:05.645Z,20.70
2018-02-06T04:54:05.625Z,21.20
2018-02-06T04:55:05.602Z,21.20
2018-02-06T04:56:05.572Z,21.00
2018-02-06T04:57:05.551Z,21.40
2018-02-06T04:58:05.527Z,21.90
2018-02-06T04:59:05.503Z,20.60
2018-02-06T05:00:05.472Z,20.80
2018-02-06T05:01:05.447Z,20.90
2018-02-06T05:02:05.421Z,20.30
2018-02-06T05:03:05.399Z,21.00
2018-02-06T05:04:05.371Z,21.40
2018-02-06T05:05:05.345Z,20.90
2018-02-06T05:06:05.325Z,21.50
2018-02-06T05:07:05.297Z,20.50
2018-02-06T05:08:05.272Z,22.00
2018-02-06T05:09:05.245Z,21.10
2018-02-06T05:10:05.226Z,20.60
2018-02-06T05:11:05.198Z,21.30
2018-02-06T05:12:05.181Z,21.20
2018-02-06T05:13:05.157Z,21.90
2018-02-06T05:14:05.123Z,21.20
2018-02-06T05:15:05.095Z,21.30
2018-02-06T05:16:05.075Z,20.60
2018-02-06T05:17:05.053Z,21.20
2018-02-06T05:18:05.027Z,20.90
2018-02-06T05:19:05.005Z,20.80
2018-02-06T05:20:04.973Z,21.40
2018-02-06T05:21:04.945Z,20.90
2018-02-06T05:22:04.920Z,20.30
2018-02-06T05:23:04.894Z,20.60
2018-02-06T05:24:04.873Z,21.10
2018-02-06T05:25:04.844Z,20.80
2018-02-06T05:26:04.825Z,21.30
2018-02-06T05:27:04.795Z,20.70
2018-02-06T05:28:04.773Z,20.30
2018-02-06T05:29:04.746Z,19.50
2018-02-06T05:30:04.726Z,20.30
2018-02-06T05:31:04.693Z,20.90
2018-02-06T05:32:04.670Z,21.80
2018-02-06T05:33:04.647Z,20.00
2018-02-06T05:34:04.621Z,20.30
2018-02-06T05:35:04.595Z,20.20
2018-02-06T05:36:04.576Z,20.90
2018-02-06T05:37:04.543Z,21.80
2018-02-06T05:38:04.523Z,20.10
2018-02-06T05:39:04.494Z,19.70
2018-02-06T05:40:04.469Z,21.10
2018-02-06T05:41:04.444Z,20.80
2018-02-06T05:42:04.418Z,21.10
2018-02-06T05:43:04.394Z,21.00
2018-02-06T05:44:04.369Z,20.40
2018-02-06T05:45:04.351Z,20.40
2018-02-06T05:46:04.319Z,20.10
2018-02-06T05:47:04.295Z,19.90
2018-02-06T05:48:04.279Z,20.40
2018-02-06T05:49:04.245Z,20.10
2018-02-06T05:50:04.224Z,20.80
2018-02-06T05:51:04.196Z,20.00
2018-02-06T05:52:04.167Z,20.40
2018-02-06T05:53:04.147Z,21.00
2018-02-06T05:54:04.126Z,19.30
2018-02-06T05:55:04.100Z,19.90
2018-02-06T05:56:04.075Z,19.80
2018-02-06T05:57:04.048Z,20.60
2018-02-06T05:58:04.015Z,20.50
2018-02-06T05:59:03.993Z,19.50
2018-02-06T06:00:03.972Z,21.00
2018-02-06T06:01:03.953Z,20.00
2018-02-06T06:02:03.920Z,20.70
2018-02-06T06:03:03.896Z,19.40
2018-02-06T06:04:03.870Z,20.20
2018-02-06T06:05:03.841Z,20.50
2018-02-06T06:06:03.820Z,19.90
2018-02-06T06:07:03.793Z,20.50
2018-02-06T06:08:03.774Z,21.80
2018-02-06T06:09:03.742Z,21.60
2018-02-06T06:10:03.728Z,20.90
2018-02-06T06:11:03.692Z,21.40
2018-02-06T06:12:03.669Z,21.30
2018-02-06T06:13:03.645Z,20.40
2018-02-06T06:14:03.617Z,21.40
2018-02-06T06:15:03.592Z,19.90
2018-02-06T06:16:03.571Z,20.30
2018-02-06T06:17:03.545Z,19.90
2018-02-06T06:18:03.515Z,21.90
2018-02-06T06:19:03.492Z,20.40
2018-02-06T06:20:03.473Z,20.60
2018-02-06T06:21:03.447Z,21.70
2018-02-06T06:22:03.417Z,20.90
2018-02-06T06:23:03.388Z,19.40
2018-02-06T06:24:03.369Z,20.00
2018-02-06T06:25:03.346Z,21.10
2018-02-06T06:26:03.319Z,21.00
2018-02-06T06:27:03.297Z,21.40
2018-02-06T06:28:03.265Z,20.00
2018-02-06T06:29:03.245Z,20.40
2018-02-06T06:30:03.214Z,20.60
2018-02-06T06:31:03.194Z,19.60
2018-02-06T06:32:03.165Z,20.70
2018-02-06T06:33:03.143Z,21.00
2018-02-06T06:34:03.117Z,20.40
2018-02-06T06:35:03.095Z,19.70
2018-02-06T06:36:03.070Z,20.70
2018-02-06T06:37:03.038Z,20.00
2018-02-06T06:38:03.018Z,20.10
2018-02-06T06:39:02.989Z,20.00
2018-02-06T06:40:02.967Z,20.50
2018-02-06T06:41:02.939Z,19.90
2018-02-06T06:42:02.912Z,19.70
2018-02-06T06:43:02.892Z,19.50
2018-02-06T06:44:02.865Z,19.10
2018-02-06T06:45:02.840Z,20.50
2018-02-06T06:46:02.815Z,19.80
2018-02-06T06:47:02.792Z,21.50
2018-02-06T06:48:02.774Z,19.50
2018-02-06T06:49:02.740Z,21.10
2018-02-06T06:50:02.715Z,21.90
2018-02-06T06:51:02.690Z,21.60
2018-02-06T06:52:02.667Z,21.70
2018-02-06T06:53:02.645Z,21.10
2018-02-06T06:54:02.615Z,22.40
2018-02-06T06:55:02.595Z,22.50
2018-02-06T06:56:02.562Z,22.20
2018-02-06T06:57:02.540Z,21.20
2018-02-06T06:58:02.512Z,20.80
2018-02-06T06:59:02.490Z,19.30
2018-02-06T07:00:02.466Z,20.80
2018-02-06T07:01:02.436Z,20.50
2018-02-06T07:02:02.416Z,20.30
2018-02-06T07:03:02.392Z,19.50
2018-02-06T07:04:02.364Z,19.00
2018-02-06T07:05:02.356Z,19.60
2018-02-06T07:06:02.321Z,20.10
2018-02-06T07:07:02.288Z,20.20
2018-02-06T07:08:02.262Z,21.20
2018-02-06T07:09:02.236Z,20.20
2018-02-06T07:10:02.212Z,19.20
2018-02-06T07:11:02.186Z,20.80
2018-02-06T07:12:02.165Z,20.50
2018-02-06T07:13:02.138Z,19.90
2018-02-06T07:14:02.116Z,19.30
2018-02-06T07:15:02.086Z,20.10
2018-02-06T07:16:02.109Z,20.60
2018-02-06T07:17:02.036Z,19.90
2018-02-06T07:18:02.014Z,20.40
2018-02-06T07:19:01.989Z,19.50
2018-02-06T07:20:02.214Z,20.20
2018-02-06T07:21:01.935Z,19.20
2018-02-06T07:22:01.911Z,20.50
2018-02-06T07:23:01.890Z,20.70
2018-02-06T07:24:01.861Z,20.10
2018-02-06T07:25:01.850Z,20.50
2018-02-06T07:26:01.812Z,21.20
2018-02-06T07:27:01.786Z,20.00
2018-02-06T07:28:01.759Z,20.10
2018-02-06T07:29:01.745Z,20.50
2018-02-06T07:30:01.714Z,20.70
2018-02-06T07:31:01.690Z,21.60
2018-02-06T07:32:01.661Z,20.70
2018-02-06T07:33:01.636Z,19.90
2018-02-06T07:34:01.612Z,19.20
2018-02-06T07:35:01.584Z,19.60
2018-02-06T07:36:01.564Z,19.20
2018-02-06T07:37:01.540Z,20.50
2018-02-06T07:38:01.508Z,19.20
2018-02-06T07:39:01.486Z,18.90
2018-02-06T07:40:01.459Z,19.10
2018-02-06T07:41:01.435Z,19.40
2018-02-06T07:42:01.411Z,20.20
2018-02-06T07:43:01.384Z,18.60
2018-02-06T07:44:01.362Z,19.50
2018-02-06T07:45:01.336Z,19.60
2018-02-06T07:46:01.310Z,18.40
2018-02-06T07:47:01.289Z,20.30
2018-02-06T07:48:01.259Z,19.40
2018-02-06T07:49:01.234Z,19.10
2018-02-06T07:50:01.213Z,19.90
2018-02-06T07:51:01.182Z,19.30
2018-02-06T07:52:01.164Z,19.60
2018-02-06T07:53:01.132Z,20.30
2018-02-06T07:54:01.106Z,20.70
2018-02-06T07:55:01.086Z,19.30
2018-02-06T07:56:01.055Z,18.80
2018-02-06T07:57:01.036Z,20.30
2018-02-06T07:58:01.004Z,20.40
2018-02-06T07:59:00.981Z,19.80
2018-02-06T08:00:00.955Z,20.00
2018-02-06T08:01:00.939Z,18.90
2018-02-06T08:02:00.907Z,19.00
2018-02-06T08:03:00.879Z,19.10
2018-02-06T08:04:00.857Z,19.10
2018-02-06T08:05:00.829Z,20.30
2018-02-06T08:06:00.805Z,18.30
2018-02-06T08:07:00.827Z,18.90
2018-02-06T08:08:00.755Z,18.50
2018-02-06T08:09:00.734Z,18.80
2018-02-06T08:10:00.702Z,19.90
2018-02-06T08:11:00.676Z,19.20
2018-02-06T08:12:00.652Z,18.90
2018-02-06T08:13:00.625Z,19.10
2018-02-06T08:14:00.601Z,19.20
2018-02-06T08:15:00.578Z,19.20
2018-02-06T08:16:00.553Z,18.90
2018-02-06T08:17:00.533Z,18.60
2018-02-06T08:18:00.501Z,18.20
2018-02-06T08:19:00.477Z,18.80
2018-02-06T08:20:00.450Z,18.50
2018-02-06T08:21:00.427Z,18.20
2018-02-06T08:22:00.404Z,18.30
2018-02-06T08:23:00.376Z,19.40
2018-02-06T08:24:00.355Z,17.50
2018-02-06T08:25:00.329Z,18.50
2018-02-06T08:26:00.321Z,18.70
2018-02-06T08:27:00.275Z,19.40
2018-02-06T08:28:00.252Z,18.10
2018-02-06T08:29:00.226Z,18.60
2018-02-06T08:30:00.197Z,19.10
2018-02-06T08:31:00.176Z,18.20
2018-02-06T08:32:00.154Z,19.30
2018-02-06T08:33:00.125Z,18.00
2018-02-06T08:34:00.097Z,18.80
2018-02-06T08:35:00.075Z,18.60
2018-02-06T08:36:00.045Z,19.10
2018-02-06T08:37:00.031Z,17.90
2018-02-06T08:37:59.993Z,18.40
2018-02-06T08:38:59.970Z,18.50
2018-02-06T08:39:59.945Z,19.00
2018-02-06T08:40:59.922Z,19.40
2018-02-06T08:41:59.896Z,20.30
2018-02-06T08:42:59.873Z,18.50
2018-02-06T08:43:59.844Z,17.80
2018-02-06T08:44:59.817Z,18.90
2018-02-06T08:45:59.793Z,17.50
2018-02-06T08:46:59.770Z,18.70
2018-02-06T08:47:59.746Z,19.20
2018-02-06T08:48:59.716Z,17.80
2018-02-06T08:49:59.691Z,18.10
2018-02-06T08:50:59.669Z,17.60
2018-02-06T08:51:59.642Z,18.30
2018-02-06T08:52:59.615Z,18.90
2018-02-06T08:53:59.596Z,18.10
2018-02-06T08:54:59.573Z,18.20
2018-02-06T08:55:59.540Z,19.40
2018-02-06T08:56:59.516Z,19.40
2018-02-06T08:57:59.494Z,19.00
2018-02-06T08:58:59.465Z,17.80
2018-02-06T08:59:59.454Z,17.60
2018-02-06T09:00:59.414Z,18.40
2018-02-06T09:01:59.389Z,18.40
2018-02-06T09:02:59.369Z,19.40
2018-02-06T09:03:59.342Z,18.10
2018-02-06T09:04:59.315Z,19.10
2018-02-06T09:05:59.291Z,19.80
2018-02-06T09:06:59.263Z,18.90
2018-02-06T09:07:59.236Z,18.60
2018-02-06T09:08:59.215Z,17.70
2018-02-06T09:09:59.189Z,19.30
2018-02-06T09:10:59.159Z,17.60
2018-02-06T09:11:59.148Z,19.20
2018-02-06T09:12:59.109Z,19.60
2018-02-06T09:13:59.085Z,19.00
2018-02-06T09:14:59.064Z,19.30
2018-02-06T09:15:59.034Z,20.40
2018-02-06T09:16:59.010Z,20.40
2018-02-06T09:17:58.988Z,19.10
2018-02-06T09:18:58.963Z,19.70
2018-02-06T09:19:58.938Z,19.70
2018-02-06T09:20:58.914Z,19.00
2018-02-06T09:21:58.888Z,19.60
2018-02-06T09:22:58.862Z,19.20
2018-02-06T09:23:58.836Z,18.50
2018-02-06T09:24:58.812Z,17.60
2018-02-06T09:25:58.786Z,19.40
2018-02-06T09:26:58.760Z,17.80
2018-02-06T09:27:58.733Z,18.40
2018-02-06T09:28:59.008Z,18.90
2018-02-06T09:29:58.684Z,19.10
2018-02-06T09:30:58.658Z,19.40
2018-02-06T09:31:58.634Z,19.70
2018-02-06T09:32:58.616Z,19.60
2018-02-06T09:33:58.585Z,18.60
2018-02-06T09:34:58.555Z,19.00
2018-02-06T09:35:58.532Z,19.90
2018-02-06T09:36:58.506Z,18.50
2018-02-06T09:37:58.483Z,18.40
2018-02-06T09:38:58.457Z,18.30
2018-02-06T09:39:58.439Z,18.60
2018-02-06T09:40:58.407Z,18.90
2018-02-06T09:41:58.384Z,18.30
2018-02-06T09:42:58.355Z,18.90
2018-02-06T09:43:58.336Z,19.50
2018-02-06T09:44:58.340Z,17.70
2018-02-06T09:45:58.288Z,18.30
2018-02-06T09:46:58.265Z,18.50
2018-02-06T09:47:58.235Z,19.20
2018-02-06T09:48:58.207Z,19.30
2018-02-06T09:49:58.185Z,18.00
2018-02-06T09:50:58.157Z,18.80
2018-02-06T09:51:58.135Z,19.20
2018-02-06T09:52:58.106Z,18.20
2018-02-06T09:53:58.082Z,18.90
2018-02-06T09:54:58.061Z,19.00
2018-02-06T09:55:58.041Z,19.20
2018-02-06T09:56:58.009Z,19.80
2018-02-06T09:57:57.982Z,19.20
2018-02-06T09:58:57.959Z,19.70
2018-02-06T09:59:57.934Z,19.60
2018-02-06T10:00:57.909Z,19.10
2018-02-06T10:01:57.888Z,18.80
2018-02-06T10:02:57.867Z,19.60
2018-02-06T10:03:57.834Z,19.90
2018-02-06T10:04:57.810Z,19.60
2018-02-06T10:05:57.783Z,18.50
2018-02-06T10:06:57.760Z,18.00
2018-02-06T10:07:57.735Z,19.20
2018-02-06T10:08:57.713Z,20.40
2018-02-06T10:09:57.681Z,18.00
2018-02-06T10:10:57.665Z,20.10
2018-02-06T10:11:57.642Z,18.40
2018-02-06T10:12:57.613Z,19.50
2018-02-06T10:13:57.590Z,19.10
2018-02-06T10:14:57.559Z,20.00
2018-02-06T10:15:57.536Z,19.90
2018-02-06T10:16:57.514Z,19.00
2018-02-06T10:17:57.497Z,19.20
2018-02-06T10:18:57.459Z,20.00
2018-02-06T10:19:57.436Z,19.80
2018-02-06T10:20:57.423Z,20.00
2018-02-06T10:21:57.383Z,18.70
2018-02-06T10:22:57.363Z,20.40
2018-02-06T10:23:57.335Z,19.10
2018-02-06T10:24:57.317Z,19.70
2018-02-06T10:25:57.283Z,19.80
2018-02-06T10:26:57.259Z,19.40
2018-02-06T10:27:57.238Z,19.50
2018-02-06T10:28:57.210Z,19.30
2018-02-06T10:29:57.184Z,19.40
2018-02-06T10:30:57.163Z,19.20
2018-02-06T10:31:57.137Z,19.40
2018-02-06T10:32:57.114Z,19.70
2018-02-06T10:33:57.092Z,19.70
2018-02-06T10:34:57.060Z,18.00
2018-02-06T10:35:57.045Z,19.30
2018-02-06T10:36:57.018Z,18.40
2018-02-06T10:37:56.989Z,19.90
2018-02-06T10:38:56.964Z,19.00
2018-02-06T10:39:56.941Z,19.00
2018-02-06T10:40:56.915Z,19.30
2018-02-06T10:41:56.896Z,19.00
2018-02-06T10:42:56.865Z,19.20
2018-02-06T10:43:56.848Z,18.40
2018-02-06T10:44:56.815Z,19.60
2018-02-06T10:45:56.790Z,19.90
2018-02-06T10:46:56.768Z,19.70
2018-02-06T10:47:56.740Z,20.10
2018-02-06T10:48:56.722Z,20.10
2018-02-06T10:49:56.696Z,20.50
2018-02-06T10:50:56.668Z,19.00
2018-02-06T10:51:56.638Z,19.80
2018-02-06T10:52:56.630Z,18.90
2018-02-06T10:53:56.592Z,18.40
2018-02-06T10:54:56.568Z,19.90
2018-02-06T10:55:56.546Z,19.40
2018-02-06T10:56:56.518Z,18.10
2018-02-06T10:57:56.495Z,18.70
2018-02-06T10:58:56.470Z,18.70
2018-02-06T10:59:56.448Z,20.30
2018-02-06T11:00:56.429Z,18.60
2018-02-06T11:01:56.397Z,19.10
2018-02-06T11:02:56.368Z,20.00
2018-02-06T11:03:56.344Z,18.90
2018-02-06T11:04:56.327Z,20.00
2018-02-06T11:05:56.296Z,19.70
2018-02-06T11:06:56.273Z,18.80
2018-02-06T11:07:56.249Z,19.70
2018-02-06T11:08:56.228Z,19.60
2018-02-06T11:09:56.201Z,19.30
2018-02-06T11:10:56.232Z,18.30
2018-02-06T11:11:56.158Z,21.00
2018-02-06T11:12:56.124Z,19.80
2018-02-06T11:13:56.098Z,19.60
2018-02-06T11:14:56.082Z,20.10
2018-02-06T11:15:56.062Z,18.90
2018-02-06T11:16:56.024Z,19.60
2018-02-06T11:17:56.003Z,20.50
2018-02-06T11:18:55.980Z,18.60
2018-02-06T11:19:55.996Z,18.70
2018-02-06T11:20:55.935Z,18.50
2018-02-06T11:21:55.905Z,18.10
2018-02-06T11:22:55.883Z,19.20
2018-02-06T11:23:55.858Z,19.90
2018-02-06T11:24:55.831Z,19.20
2018-02-06T11:25:55.805Z,19.50
2018-02-06T11:26:55.780Z,19.60
2018-02-06T11:27:55.762Z,19.70
2018-02-06T11:28:55.733Z,18.50
2018-02-06T11:29:55.708Z,19.70
2018-02-06T11:30:55.688Z,19.40
2018-02-06T11:31:55.662Z,19.60
2018-02-06T11:32:55.634Z,18.00
2018-02-06T11:33:55.615Z,18.90
2018-02-06T11:34:55.587Z,20.10
2018-02-06T11:35:55.618Z,17.80
2018-02-06T11:36:55.541Z,18.70
2018-02-06T11:37:55.516Z,19.60
2018-02-06T11:38:55.496Z,18.60
2018-02-06T11:39:55.469Z,18.70
2018-02-06T11:40:55.438Z,19.20
2018-02-06T11:41:55.418Z,19.50
2018-02-06T11:42:55.393Z,19.50
2018-02-06T11:43:55.369Z,18.70
2018-02-06T11:44:55.343Z,18.90
2018-02-06T11:45:55.320Z,19.20
2018-02-06T11:46:55.296Z,18.50
2018-02-06T11:47:55.268Z,18.70
2018-02-06T11:48:55.246Z,19.30
2018-02-06T11:49:55.221Z,18.70
2018-02-06T11:50:55.196Z,18.70
2018-02-06T11:51:55.177Z,18.20
2018-02-06T11:52:55.146Z,19.90
2018-02-06T11:53:55.120Z,20.00
2018-02-06T11:54:55.096Z,18.80
2018-02-06T11:55:55.073Z,18.50
2018-02-06T11:56:55.047Z,17.90
2018-02-06T11:57:55.023Z,18.50
2018-02-06T11:58:55.002Z,19.50
2018-02-06T11:59:54.974Z,19.50
2018-02-06T12:00:54.954Z,19.80
2018-02-06T12:01:54.926Z,19.10
2018-02-06T12:02:54.905Z,19.40
2018-02-06T12:03:54.877Z,19.40
2018-02-06T12:04:54.848Z,19.80
2018-02-06T12:05:54.838Z,18.40
2018-02-06T12:06:54.803Z,18.10
2018-02-06T12:07:54.779Z,19.40
2018-02-06T12:08:54.754Z,19.40
2018-02-06T12:09:54.727Z,19.70
2018-02-06T12:10:54.705Z,18.10
2018-02-06T12:11:54.683Z,17.90
2018-02-06T12:12:54.654Z,18.20
2018-02-06T12:13:54.644Z,18.20
2018-02-06T12:14:54.631Z,18.60
2018-02-06T12:15:54.587Z,18.80
2018-02-06T12:16:54.556Z,18.60
2018-02-06T12:17:54.535Z,17.90
2018-02-06T12:18:54.508Z,18.00
2018-02-06T12:19:54.490Z,18.00
2018-02-06T12:20:54.460Z,19.80
2018-02-06T12:21:54.444Z,20.90
2018-02-06T12:22:54.413Z,17.90
2018-02-06T12:23:54.387Z,18.30
2018-02-06T12:24:54.361Z,17.30
2018-02-06T12:25:54.340Z,18.10
2018-02-06T12:26:54.365Z,17.50
2018-02-06T12:27:54.291Z,18.00
2018-02-06T12:28:54.265Z,18.60
2018-02-06T12:29:54.248Z,17.70
2018-02-06T12:30:54.220Z,17.60
2018-02-06T12:31:54.191Z,17.60
2018-02-06T12:32:54.165Z,17.80
2018-02-06T12:33:54.147Z,17.60
2018-02-06T12:34:54.120Z,17.80
2018-02-06T12:35:54.095Z,18.10
2018-02-06T12:36:54.071Z,18.50
2018-02-06T12:37:54.046Z,18.50
2018-02-06T12:38:54.023Z,17.00
2018-02-06T12:39:53.997Z,17.50
2018-02-06T12:40:53.976Z,18.40
2018-02-06T12:41:53.946Z,17.60
2018-02-06T12:42:53.925Z,17.60
2018-02-06T12:43:53.904Z,17.30
2018-02-06T12:44:53.872Z,17.00
2018-02-06T12:45:53.848Z,17.80
2018-02-06T12:46:53.823Z,18.40
2018-02-06T12:47:53.801Z,17.90
2018-02-06T12:48:53.774Z,17.00
2018-02-06T12:49:53.757Z,16.80
2018-02-06T12:50:53.731Z,17.40
2018-02-06T12:51:53.705Z,18.50
2018-02-06T12:52:53.674Z,17.20
2018-02-06T12:53:53.656Z,17.20
2018-02-06T12:54:53.632Z,18.40
2018-02-06T12:55:53.604Z,17.40
2018-02-06T12:56:53.577Z,18.00
2018-02-06T12:57:53.554Z,16.00
2018-02-06T12:58:53.530Z,16.90
2018-02-06T12:59:53.507Z,18.30
2018-02-06T13:00:53.482Z,17.70
2018-02-06T13:01:53.460Z,18.50
2018-02-06T13:02:53.435Z,17.70
2018-02-06T13:03:53.416Z,18.40
2018-02-06T13:04:53.386Z,17.00
2018-02-06T13:05:53.362Z,17.20
2018-02-06T13:06:53.349Z,16.50
2018-02-06T13:07:53.315Z,17.50
2018-02-06T13:08:53.344Z,16.30
2018-02-06T13:09:53.266Z,16.80
2018-02-06T13:10:53.245Z,18.00
2018-02-06T13:11:53.216Z,17.10
2018-02-06T13:12:53.189Z,16.90
2018-02-06T13:13:53.164Z,17.10
2018-02-06T13:14:53.148Z,16.30
2018-02-06T13:15:53.116Z,17.20
2018-02-06T13:16:53.103Z,17.00
2018-02-06T13:17:53.076Z,16.00
2018-02-06T13:18:53.046Z,17.40
2018-02-06T13:19:53.025Z,15.80
2018-02-06T13:20:52.997Z,17.60
2018-02-06T13:21:52.975Z,17.60
2018-02-06T13:22:52.947Z,16.70
2018-02-06T13:23:52.924Z,16.80
2018-02-06T13:24:52.896Z,16.70
2018-02-06T13:25:52.875Z,17.60
2018-02-06T13:26:52.859Z,17.70
2018-02-06T13:27:52.822Z,17.60
2018-02-06T13:28:52.805Z,17.50
2018-02-06T13:29:52.777Z,18.60
2018-02-06T13:30:52.750Z,18.30
2018-02-06T13:31:52.727Z,17.70
2018-02-06T13:32:52.702Z,16.50
2018-02-06T13:33:52.677Z,16.90
2018-02-06T13:34:52.655Z,17.60
2018-02-06T13:35:52.632Z,17.90
2018-02-06T13:36:52.600Z,17.40
2018-02-06T13:37:52.583Z,17.00
2018-02-06T13:38:52.552Z,18.10
2018-02-06T13:39:52.536Z,18.00
2018-02-06T13:40:52.504Z,17.30
2018-02-06T13:41:52.480Z,17.20
2018-02-06T13:42:52.456Z,16.60
2018-02-06T13:43:52.433Z,16.40
2018-02-06T13:44:52.406Z,16.50
2018-02-06T13:45:52.381Z,16.10
2018-02-06T13:46:52.355Z,16.80
2018-02-06T13:47:52.336Z,16.40
2018-02-06T13:48:52.322Z,17.10
2018-02-06T13:49:52.288Z,17.20
2018-02-06T13:50:52.258Z,16.20
2018-02-06T13:51:52.235Z,16.80
2018-02-06T13:52:52.212Z,17.70
2018-02-06T13:53:52.215Z,16.80
2018-02-06T13:54:52.169Z,17.10
2018-02-06T13:55:52.137Z,17.50
2018-02-06T13:56:52.122Z,16.10
2018-02-06T13:57:52.088Z,16.40
2018-02-06T13:58:52.062Z,16.20
2018-02-06T13:59:52.042Z,16.60
2018-02-06T14:00:52.018Z,16.60
2018-02-06T14:01:51.991Z,16.90
2018-02-06T14:02:51.965Z,16.10
2018-02-06T14:03:51.946Z,17.40
2018-02-06T14:04:51.916Z,17.40
2018-02-06T14:05:51.891Z,16.40
2018-02-06T14:06:51.871Z,16.80
2018-02-06T14:07:51.862Z,16.50
2018-02-06T14:08:51.820Z,16.80
2018-02-06T14:09:51.803Z,16.60
2018-02-06T14:10:51.775Z,17.50
2018-02-06T14:11:51.756Z,17.20
2018-02-06T14:12:51.726Z,17.60
2018-02-06T14:13:51.698Z,16.60
2018-02-06T14:14:51.679Z,16.70
2018-02-06T14:15:51.652Z,15.80
2018-02-06T14:16:51.630Z,17.10
2018-02-06T14:17:51.598Z,15.80
2018-02-06T14:18:51.573Z,15.90
2018-02-06T14:19:51.551Z,16.90
2018-02-06T14:20:51.526Z,16.20
2018-02-06T14:21:51.505Z,16.70
2018-02-06T14:22:51.478Z,18.20
2018-02-06T14:23:51.470Z,17.60
2018-02-06T14:24:51.430Z,16.60
2018-02-06T14:25:51.404Z,16.60
2018-02-06T14:26:51.382Z,17.20
2018-02-06T14:27:51.355Z,17.90
2018-02-06T14:28:51.334Z,17.80
2018-02-06T14:29:51.304Z,17.00
2018-02-06T14:30:51.290Z,16.40
2018-02-06T14:31:51.255Z,17.10
2018-02-06T14:32:51.233Z,18.50
2018-02-06T14:33:51.205Z,16.60
2018-02-06T14:34:51.183Z,17.20
2018-02-06T14:35:51.159Z,16.60
2018-02-06T14:36:51.130Z,17.40
2018-02-06T14:37:51.111Z,16.80
2018-02-06T14:38:51.086Z,17.20
2018-02-06T14:39:51.068Z,18.60
2018-02-06T14:40:51.034Z,18.60
2018-02-06T14:41:51.013Z,18.00
2018-02-06T14:42:50.985Z,20.10
2018-02-06T14:43:50.960Z,18.80
2018-02-06T14:44:50.937Z,16.00
2018-02-06T14:45:50.912Z,17.20
2018-02-06T14:46:50.888Z,16.30
2018-02-06T14:47:50.867Z,16.00
2018-02-06T14:48:50.835Z,16.00